• Join FlightAware (Why Join?)
  • Login
  • US Flag 
03:26PM EDT


 

Airport Tracker/Info


-or-


 

Live Flight TrackerFlight Track Log ✈ EGF3681 ✈ 02-Jul-2013 ✈ KORD - KDAY

Flight Track Log - Related Links

Times and Time Zones

All times are in EDT time to prevent confusion due to time zone crossing. See the EGF3681 flight status page for this flight to view local times or setup timezone preferences in your user account.

Time Position Orientation Groundspeed Altitude Reporting Facility
EDT Latitude Longitude Course Direction KTS MPH feet Rate Location/Type
11:35PM 42.0000 -87.9500 95° East 157 181 1,500  Level Chicago TRACON
11:37PM 42.0333 -87.9167 37° Northeast 212 244 3,500 1,800 Climbing Chicago TRACON
11:37PM 42.0333 -87.8500 90° East 238 274 5,200 2,040 Climbing Chicago TRACON
11:38PM 41.9667 -87.5500 90° East  Level FlightAware Approximate
11:38PM 42.0333 -87.7500 90° East 260 299 7,400  Level Chicago TRACON
11:39PM 41.9568 -87.4342 98° East  Level FlightAware Approximate
11:39PM 42.0333 -87.6500 90° East 284 327 9,400  Level Chicago TRACON
11:40PM 41.9466 -87.3184 95° East  Level FlightAware Approximate
11:40PM 42.0167 -87.5500 103° East 291 335 11,300  Level Chicago TRACON
11:41PM 41.9379 -87.1961 95° East  Level FlightAware Approximate
11:42PM 41.9994 -87.4206 100° East 299 344 13,700  Level Chicago Center
11:43PM 41.9822 -87.3058 101° East 311 358 14,700 960 Climbing Chicago Center
11:44PM 41.9628 -87.1767 101° East 349 402 15,700 900 Climbing Chicago Center
11:45PM 41.9422 -87.0422 102° East 368 423 16,600 840 Climbing Chicago Center
11:46PM 41.9450 -86.8975 88° East 388 447 17,500 780 Climbing Chicago Center
11:47PM 41.9486 -86.7506 88° East 395 455 18,300 840 Climbing Chicago Center
11:48PM 41.9517 -86.5761 89° East 405 466 19,300 900 Climbing Chicago Center
11:49PM 41.9522 -86.4200 90° East 416 479 20,200 960 Climbing Chicago Center
11:50PM 41.9544 -86.2633 89° East 420 483 21,300 1,080 Climbing Chicago Center
11:51PM 41.9275 -86.1111 103° East 422 486 22,400 840 Climbing Chicago Center
11:52PM 41.8639 -85.9875 125° Southeast 418 481 23,000 240 Climbing Chicago Center
11:53PM 41.7711 -85.8936 143° Southeast 422 486 23,000  Level Chicago Center
11:54PM 41.6886 -85.7861 136° Southeast 419 482 23,000  Level Chicago Center
11:55PM 41.6089 -85.6839 136° Southeast 405 466 23,000  Level Chicago Center
11:56PM 41.5300 -85.5842 137° Southeast 399 459 23,000  Level Chicago Center
11:57PM 41.4517 -85.4822 136° Southeast 401 461 23,000  Level Chicago Center
11:58PM 41.3553 -85.3597 136° Southeast 404 465 23,000  Level Chicago Center
11:59PM 41.2733 -85.2553 136° Southeast 408 470 23,000 -300 Level Chicago Center
12:00AM 41.1881 -85.1497 137° Southeast 417 480 22,400 -1,320 Descending Chicago Center
12:01AM 41.1069 -85.0469 136° Southeast 410 472 20,400 -2,040 Descending Chicago Center
12:02AM 41.0272 -84.9475 137° Southeast 400 460 18,300 -2,040 Descending Chicago Center
12:03AM 40.9478 -84.8492 137° Southeast 394 453 16,300 -1,740 Descending Chicago Center
12:04AM 40.8694 -84.7544 138° Southeast 376 433 14,900 -1,380 Descending Indianapolis Center
12:05AM 40.7892 -84.7111 158° South 312 359 13,600 -1,560 Descending Indianapolis Center
12:06AM 40.7081 -84.6675 158° South 311 358 11,800 -1,380 Descending Indianapolis Center
12:07AM 40.6158 -84.6153 157° South 351 404 10,900 -480 Descending Indianapolis Center
12:08AM 40.5417 -84.5764 158° South 360 414 11,000  Climbing Indianapolis Center
12:09AM 40.4328 -84.5147 157° South 354 407 11,000 -240 Level Indianapolis Center
12:10AM 40.3536 -84.4550 150° Southeast 323 372 10,500 -840 Descending Indianapolis Center
12:11AM 40.2917 -84.3936 143° Southeast 283 326 9,400 -1,320 Descending Indianapolis Center
12:12AM 40.2267 -84.3372 146° Southeast 278 320 7,900 -1,560 Descending Indianapolis Center
12:13AM 40.1506 -84.2983 159° South 249 287 6,300 -1,620 Descending Indianapolis Center
12:14AM 40.0886 -84.2678 159° South 245 282 4,700 -1,380 Descending Indianapolis Center
12:15AM 40.0308 -84.2383 159° South 213 245 3,500 -1,200 Descending Indianapolis Center
12:16AM 39.9889 -84.2172 159° South 143 165 2,400 -900 Descending Indianapolis Center
12:17AM 39.9514 -84.2131 175° South 126 145 1,700 -720 Descending Indianapolis Center